sensor_id;sensor_type;location;lat;lon;timestamp;pressure;altitude;pressure_sealevel;temperature;humidity
68712;BME280;55690;51.566;19.198;2023-02-19T00:00:44;101248.18;;;6.31;98.56
68712;BME280;55690;51.566;19.198;2023-02-19T00:04:51;101251.46;;;6.38;98.34
68712;BME280;55690;51.566;19.198;2023-02-19T00:08:57;101260.43;;;6.39;98.57
68712;BME280;55690;51.566;19.198;2023-02-19T00:13:03;101254.90;;;6.42;98.16
68712;BME280;55690;51.566;19.198;2023-02-19T00:17:09;101257.44;;;6.45;98.29
68712;BME280;55690;51.566;19.198;2023-02-19T00:21:16;101264.61;;;6.63;97.29
68712;BME280;55690;51.566;19.198;2023-02-19T00:25:21;101277.20;;;6.81;96.34
68712;BME280;55690;51.566;19.198;2023-02-19T00:29:28;101277.58;;;6.74;96.48
68712;BME280;55690;51.566;19.198;2023-02-19T00:33:34;101269.71;;;6.69;96.54
68712;BME280;55690;51.566;19.198;2023-02-19T00:37:40;101260.20;;;6.79;96.14
68712;BME280;55690;51.566;19.198;2023-02-19T00:41:46;101253.09;;;6.59;96.67
68712;BME280;55690;51.566;19.198;2023-02-19T00:45:52;101245.41;;;6.33;97.88
68712;BME280;55690;51.566;19.198;2023-02-19T00:49:59;101251.10;;;6.27;98.47
68712;BME280;55690;51.566;19.198;2023-02-19T00:54:05;101249.20;;;6.10;98.47
68712;BME280;55690;51.566;19.198;2023-02-19T00:58:11;101250.77;;;6.52;97.83
68712;BME280;55690;51.566;19.198;2023-02-19T01:02:17;101250.80;;;6.33;97.84
68712;BME280;55690;51.566;19.198;2023-02-19T01:06:23;101250.15;;;6.47;97.88
68712;BME280;55690;51.566;19.198;2023-02-19T01:10:29;101246.87;;;6.21;98.29
68712;BME280;55690;51.566;19.198;2023-02-19T01:14:36;101257.36;;;6.46;97.64
68712;BME280;55690;51.566;19.198;2023-02-19T01:18:43;101256.05;;;6.17;97.77
68712;BME280;55690;51.566;19.198;2023-02-19T01:22:48;101252.19;;;6.42;97.31
68712;BME280;55690;51.566;19.198;2023-02-19T01:26:54;101252.84;;;6.47;97.16
68712;BME280;55690;51.566;19.198;2023-02-19T01:31:06;101263.16;;;6.56;97.13
68712;BME280;55690;51.566;19.198;2023-02-19T01:35:08;101257.44;;;6.81;96.22
68712;BME280;55690;51.566;19.198;2023-02-19T01:39:13;101248.42;;;6.63;96.54
68712;BME280;55690;51.566;19.198;2023-02-19T01:43:19;101241.73;;;6.53;96.49
68712;BME280;55690;51.566;19.198;2023-02-19T01:47:26;101244.60;;;6.50;97.22
68712;BME280;55690;51.566;19.198;2023-02-19T01:51:34;101258.46;;;6.42;97.69
68712;BME280;55690;51.566;19.198;2023-02-19T01:55:39;101252.14;;;6.60;97.09
68712;BME280;55690;51.566;19.198;2023-02-19T01:59:45;101229.30;;;6.67;96.61
68712;BME280;55690;51.566;19.198;2023-02-19T02:03:51;101230.28;;;7.01;95.43
68712;BME280;55690;51.566;19.198;2023-02-19T02:07:57;101227.52;;;6.85;95.55
68712;BME280;55690;51.566;19.198;2023-02-19T02:12:14;101218.91;;;6.94;94.76
68712;BME280;55690;51.566;19.198;2023-02-19T02:16:23;101230.66;;;6.93;94.89
68712;BME280;55690;51.566;19.198;2023-02-19T02:20:36;101224.17;;;7.15;94.28
68712;BME280;55690;51.566;19.198;2023-02-19T02:29:05;101214.71;;;7.06;93.46
68712;BME280;55690;51.566;19.198;2023-02-19T02:37:23;101214.33;;;7.14;93.64
68712;BME280;55690;51.566;19.198;2023-02-19T02:41:25;101202.00;;;7.25;92.72
68712;BME280;55690;51.566;19.198;2023-02-19T02:45:30;101206.61;;;7.23;93.01
68712;BME280;55690;51.566;19.198;2023-02-19T02:49:39;101205.10;;;7.00;93.74
68712;BME280;55690;51.566;19.198;2023-02-19T02:54:15;101202.56;;;6.97;94.21
68712;BME280;55690;51.566;19.198;2023-02-19T02:58:19;101191.92;;;7.12;93.54
68712;BME280;55690;51.566;19.198;2023-02-19T03:02:25;101184.61;;;7.14;93.60
68712;BME280;55690;51.566;19.198;2023-02-19T03:06:30;101174.37;;;7.03;92.33
68712;BME280;55690;51.566;19.198;2023-02-19T03:10:43;101173.57;;;7.01;93.10
68712;BME280;55690;51.566;19.198;2023-02-19T03:14:50;101172.38;;;7.07;92.73
68712;BME280;55690;51.566;19.198;2023-02-19T03:19:07;101170.02;;;6.83;93.55
68712;BME280;55690;51.566;19.198;2023-02-19T03:23:22;101166.66;;;6.95;93.03
68712;BME280;55690;51.566;19.198;2023-02-19T03:27:40;101163.02;;;6.96;92.85
68712;BME280;55690;51.566;19.198;2023-02-19T03:31:45;101164.76;;;6.97;92.79
68712;BME280;55690;51.566;19.198;2023-02-19T03:35:54;101151.89;;;7.03;93.13
68712;BME280;55690;51.566;19.198;2023-02-19T03:39:57;101157.09;;;6.90;93.71
68712;BME280;55690;51.566;19.198;2023-02-19T03:44:09;101146.02;;;6.94;93.60
68712;BME280;55690;51.566;19.198;2023-02-19T03:48:25;101142.37;;;6.95;94.25
68712;BME280;55690;51.566;19.198;2023-02-19T03:52:36;101139.73;;;7.11;93.69
68712;BME280;55690;51.566;19.198;2023-02-19T03:56:47;101147.92;;;7.10;93.34
68712;BME280;55690;51.566;19.198;2023-02-19T04:01:00;101147.16;;;6.90;94.03
68712;BME280;55690;51.566;19.198;2023-02-19T04:05:11;101161.11;;;6.98;94.39
68712;BME280;55690;51.566;19.198;2023-02-19T04:09:14;101152.38;;;6.93;94.55
68712;BME280;55690;51.566;19.198;2023-02-19T04:13:26;101146.25;;;7.07;94.34
68712;BME280;55690;51.566;19.198;2023-02-19T04:17:36;101143.87;;;7.01;94.57
68712;BME280;55690;51.566;19.198;2023-02-19T04:21:40;101141.12;;;6.68;96.28
68712;BME280;55690;51.566;19.198;2023-02-19T04:25:45;101141.92;;;6.87;95.46
68712;BME280;55690;51.566;19.198;2023-02-19T04:29:47;101139.86;;;6.75;95.89
68712;BME280;55690;51.566;19.198;2023-02-19T04:33:49;101136.91;;;6.80;95.79
68712;BME280;55690;51.566;19.198;2023-02-19T04:37:50;101121.28;;;6.86;95.07
68712;BME280;55690;51.566;19.198;2023-02-19T04:41:51;101120.76;;;7.13;94.26
68712;BME280;55690;51.566;19.198;2023-02-19T04:45:53;101122.58;;;7.12;93.73
68712;BME280;55690;51.566;19.198;2023-02-19T04:49:54;101123.92;;;7.21;93.34
68712;BME280;55690;51.566;19.198;2023-02-19T04:53:56;101104.55;;;7.13;93.73
68712;BME280;55690;51.566;19.198;2023-02-19T04:57:59;101100.73;;;7.17;93.26
68712;BME280;55690;51.566;19.198;2023-02-19T05:02:00;101094.48;;;6.99;93.76
68712;BME280;55690;51.566;19.198;2023-02-19T05:06:03;101099.23;;;7.11;93.14
68712;BME280;55690;51.566;19.198;2023-02-19T05:10:05;101091.12;;;7.11;92.66
68712;BME280;55690;51.566;19.198;2023-02-19T05:14:07;101104.39;;;7.16;92.56
68712;BME280;55690;51.566;19.198;2023-02-19T05:18:08;101096.61;;;7.10;92.65
68712;BME280;55690;51.566;19.198;2023-02-19T05:22:10;101096.61;;;7.10;92.67
68712;BME280;55690;51.566;19.198;2023-02-19T05:26:14;101102.78;;;6.79;92.75
68712;BME280;55690;51.566;19.198;2023-02-19T05:30:19;101104.53;;;6.80;92.85
68712;BME280;55690;51.566;19.198;2023-02-19T05:34:21;101117.54;;;6.72;93.14
68712;BME280;55690;51.566;19.198;2023-02-19T05:38:23;101122.35;;;6.99;92.62
68712;BME280;55690;51.566;19.198;2023-02-19T05:42:25;101119.96;;;7.11;92.22
68712;BME280;55690;51.566;19.198;2023-02-19T05:46:28;101115.48;;;6.77;92.62
68712;BME280;55690;51.566;19.198;2023-02-19T05:50:31;101148.83;;;6.93;92.75
68712;BME280;55690;51.566;19.198;2023-02-19T05:54:33;101149.23;;;6.85;92.71
68712;BME280;55690;51.566;19.198;2023-02-19T05:58:35;101146.21;;;6.91;92.97
68712;BME280;55690;51.566;19.198;2023-02-19T06:02:37;101135.25;;;6.77;93.17
68712;BME280;55690;51.566;19.198;2023-02-19T06:06:40;101134.70;;;6.71;93.56
68712;BME280;55690;51.566;19.198;2023-02-19T06:10:42;101124.53;;;6.76;93.60
68712;BME280;55690;51.566;19.198;2023-02-19T06:14:44;101111.11;;;6.57;94.04
68712;BME280;55690;51.566;19.198;2023-02-19T06:18:45;101135.90;;;6.48;94.71
68712;BME280;55690;51.566;19.198;2023-02-19T06:22:49;101143.34;;;6.43;95.37
68712;BME280;55690;51.566;19.198;2023-02-19T06:26:51;101139.13;;;6.37;94.92
68712;BME280;55690;51.566;19.198;2023-02-19T06:30:53;101133.31;;;6.27;96.14
68712;BME280;55690;51.566;19.198;2023-02-19T06:34:54;101136.27;;;6.40;95.52
68712;BME280;55690;51.566;19.198;2023-02-19T06:38:59;101133.19;;;6.48;95.12
68712;BME280;55690;51.566;19.198;2023-02-19T06:43:01;101135.08;;;6.63;95.02
68712;BME280;55690;51.566;19.198;2023-02-19T06:47:02;101129.14;;;6.91;93.46
68712;BME280;55690;51.566;19.198;2023-02-19T06:51:05;101138.74;;;6.79;94.34
68712;BME280;55690;51.566;19.198;2023-02-19T06:55:09;101136.13;;;6.78;94.14
68712;BME280;55690;51.566;19.198;2023-02-19T06:59:16;101135.81;;;6.84;94.24
68712;BME280;55690;51.566;19.198;2023-02-19T07:03:22;101135.67;;;7.20;92.60
68712;BME280;55690;51.566;19.198;2023-02-19T07:07:28;101142.03;;;7.19;92.73
68712;BME280;55690;51.566;19.198;2023-02-19T07:11:36;101148.56;;;6.97;93.72
68712;BME280;55690;51.566;19.198;2023-02-19T07:15:40;101155.95;;;6.59;94.89
68712;BME280;55690;51.566;19.198;2023-02-19T07:19:46;101165.00;;;6.58;94.98
68712;BME280;55690;51.566;19.198;2023-02-19T07:23:53;101154.70;;;6.84;94.37
68712;BME280;55690;51.566;19.198;2023-02-19T07:27:59;101169.80;;;6.88;94.14
68712;BME280;55690;51.566;19.198;2023-02-19T07:32:05;101169.69;;;7.07;94.30
68712;BME280;55690;51.566;19.198;2023-02-19T07:36:12;101165.61;;;7.32;93.02
68712;BME280;55690;51.566;19.198;2023-02-19T07:40:17;101168.31;;;7.32;92.73
68712;BME280;55690;51.566;19.198;2023-02-19T07:44:23;101166.56;;;7.31;92.98
68712;BME280;55690;51.566;19.198;2023-02-19T07:48:29;101150.71;;;7.41;92.65
68712;BME280;55690;51.566;19.198;2023-02-19T07:52:36;101137.11;;;7.43;92.52
68712;BME280;55690;51.566;19.198;2023-02-19T07:56:42;101133.21;;;7.48;92.72
68712;BME280;55690;51.566;19.198;2023-02-19T08:00:48;101138.15;;;7.73;91.94
68712;BME280;55690;51.566;19.198;2023-02-19T08:04:54;101149.29;;;7.67;91.22
68712;BME280;55690;51.566;19.198;2023-02-19T08:09:00;101149.98;;;7.22;92.05
68712;BME280;55690;51.566;19.198;2023-02-19T08:13:10;101147.47;;;7.67;91.09
68712;BME280;55690;51.566;19.198;2023-02-19T08:17:24;101128.17;;;7.58;91.34
68712;BME280;55690;51.566;19.198;2023-02-19T08:21:26;101162.72;;;7.68;90.69
68712;BME280;55690;51.566;19.198;2023-02-19T08:25:28;101164.34;;;7.55;89.67
68712;BME280;55690;51.566;19.198;2023-02-19T08:29:31;101154.87;;;7.64;90.68
68712;BME280;55690;51.566;19.198;2023-02-19T08:33:38;101173.82;;;7.47;90.68
68712;BME280;55690;51.566;19.198;2023-02-19T08:37:44;101177.96;;;7.37;90.55
68712;BME280;55690;51.566;19.198;2023-02-19T08:41:50;101183.82;;;7.12;90.62
68712;BME280;55690;51.566;19.198;2023-02-19T08:45:56;101183.66;;;7.15;90.74
68712;BME280;55690;51.566;19.198;2023-02-19T08:50:03;101191.76;;;7.32;90.36
68712;BME280;55690;51.566;19.198;2023-02-19T08:54:08;101190.89;;;7.14;91.14
68712;BME280;55690;51.566;19.198;2023-02-19T08:58:14;101181.91;;;7.14;91.72
68712;BME280;55690;51.566;19.198;2023-02-19T09:02:22;101194.96;;;6.88;92.97
68712;BME280;55690;51.566;19.198;2023-02-19T09:06:27;101193.52;;;7.16;92.29
68712;BME280;55690;51.566;19.198;2023-02-19T09:10:33;101186.45;;;7.13;92.38
68712;BME280;55690;51.566;19.198;2023-02-19T09:14:40;101200.42;;;6.70;92.87
68712;BME280;55690;51.566;19.198;2023-02-19T09:18:45;101192.40;;;7.20;92.58
68712;BME280;55690;51.566;19.198;2023-02-19T09:22:56;101192.46;;;7.68;91.82
68712;BME280;55690;51.566;19.198;2023-02-19T09:26:58;101199.78;;;7.66;92.45
68712;BME280;55690;51.566;19.198;2023-02-19T09:31:06;101192.95;;;7.59;91.81
68712;BME280;55690;51.566;19.198;2023-02-19T09:35:10;101204.84;;;7.73;91.07
68712;BME280;55690;51.566;19.198;2023-02-19T09:39:17;101195.24;;;7.67;91.02
68712;BME280;55690;51.566;19.198;2023-02-19T09:43:25;101202.32;;;7.85;90.64
68712;BME280;55690;51.566;19.198;2023-02-19T09:47:30;101210.34;;;7.87;89.98
68712;BME280;55690;51.566;19.198;2023-02-19T09:51:36;101216.24;;;7.62;90.13
68712;BME280;55690;51.566;19.198;2023-02-19T09:55:42;101227.98;;;7.94;90.39
68712;BME280;55690;51.566;19.198;2023-02-19T09:59:50;101236.80;;;7.97;89.75
68712;BME280;55690;51.566;19.198;2023-02-19T10:03:54;101224.91;;;7.84;88.74
68712;BME280;55690;51.566;19.198;2023-02-19T10:08:04;101230.93;;;7.89;89.35
68712;BME280;55690;51.566;19.198;2023-02-19T10:12:14;101239.04;;;7.74;88.10
68712;BME280;55690;51.566;19.198;2023-02-19T10:16:23;101245.09;;;7.61;88.37
68712;BME280;55690;51.566;19.198;2023-02-19T10:20:26;101246.61;;;7.50;87.98
68712;BME280;55690;51.566;19.198;2023-02-19T10:24:28;101237.72;;;7.48;88.10
68712;BME280;55690;51.566;19.198;2023-02-19T10:28:35;101240.33;;;7.49;87.60
68712;BME280;55690;51.566;19.198;2023-02-19T10:32:36;101256.97;;;7.07;86.65
68712;BME280;55690;51.566;19.198;2023-02-19T10:36:45;101250.49;;;7.61;87.39
68712;BME280;55690;51.566;19.198;2023-02-19T10:40:56;101260.92;;;7.52;85.15
68712;BME280;55690;51.566;19.198;2023-02-19T10:45:00;101268.23;;;7.83;85.14
68712;BME280;55690;51.566;19.198;2023-02-19T10:49:06;101280.80;;;7.84;84.57
68712;BME280;55690;51.566;19.198;2023-02-19T10:53:19;101283.34;;;7.87;84.83
68712;BME280;55690;51.566;19.198;2023-02-19T10:57:26;101283.60;;;8.15;81.65
68712;BME280;55690;51.566;19.198;2023-02-19T11:01:34;101280.77;;;8.01;79.86
68712;BME280;55690;51.566;19.198;2023-02-19T11:05:36;101296.51;;;8.26;80.33
68712;BME280;55690;51.566;19.198;2023-02-19T11:09:46;101304.19;;;7.85;79.74
68712;BME280;55690;51.566;19.198;2023-02-19T11:13:49;101305.04;;;8.03;77.19
68712;BME280;55690;51.566;19.198;2023-02-19T11:26:21;101317.75;;;7.50;79.61
68712;BME280;55690;51.566;19.198;2023-02-19T11:30:31;101329.99;;;7.75;80.08
68712;BME280;55690;51.566;19.198;2023-02-19T11:34:32;101320.14;;;7.74;79.41
68712;BME280;55690;51.566;19.198;2023-02-19T11:38:35;101326.45;;;7.90;76.14
68712;BME280;55690;51.566;19.198;2023-02-19T11:42:46;101334.43;;;7.41;76.75
68712;BME280;55690;51.566;19.198;2023-02-19T11:47:04;101342.46;;;7.43;76.74
68712;BME280;55690;51.566;19.198;2023-02-19T11:51:15;101341.59;;;7.42;77.31
68712;BME280;55690;51.566;19.198;2023-02-19T11:55:33;101343.51;;;7.57;78.18
68712;BME280;55690;51.566;19.198;2023-02-19T12:04:01;101350.99;;;7.35;78.64
68712;BME280;55690;51.566;19.198;2023-02-19T12:25:05;101370.11;;;7.82;76.86
68712;BME280;55690;51.566;19.198;2023-02-19T12:37:45;101387.88;;;7.71;76.50
68712;BME280;55690;51.566;19.198;2023-02-19T12:41:58;101387.23;;;7.65;76.79
68712;BME280;55690;51.566;19.198;2023-02-19T12:50:22;101399.77;;;7.49;76.45
68712;BME280;55690;51.566;19.198;2023-02-19T12:54:34;101402.25;;;7.54;75.97
68712;BME280;55690;51.566;19.198;2023-02-19T12:58:47;101407.97;;;7.82;76.68
68712;BME280;55690;51.566;19.198;2023-02-19T13:03:02;101409.66;;;7.67;75.44
68712;BME280;55690;51.566;19.198;2023-02-19T13:07:13;101414.87;;;6.81;75.79
68712;BME280;55690;51.566;19.198;2023-02-19T13:11:21;101423.22;;;7.49;76.71
68712;BME280;55690;51.566;19.198;2023-02-19T13:19:37;101423.00;;;7.88;75.33
68712;BME280;55690;51.566;19.198;2023-02-19T13:23:41;101428.64;;;7.83;74.22
68712;BME280;55690;51.566;19.198;2023-02-19T13:36:27;101441.70;;;7.92;72.76
68712;BME280;55690;51.566;19.198;2023-02-19T13:40:36;101449.65;;;7.95;72.32
68712;BME280;55690;51.566;19.198;2023-02-19T13:44:40;101450.44;;;7.63;72.64
68712;BME280;55690;51.566;19.198;2023-02-19T13:48:46;101457.44;;;8.01;72.98
68712;BME280;55690;51.566;19.198;2023-02-19T13:52:49;101471.43;;;8.27;73.80
68712;BME280;55690;51.566;19.198;2023-02-19T14:01:09;101481.72;;;7.50;70.96
68712;BME280;55690;51.566;19.198;2023-02-19T14:05:12;101477.02;;;7.36;70.86
68712;BME280;55690;51.566;19.198;2023-02-19T14:17:43;101491.48;;;7.35;70.80
68712;BME280;55690;51.566;19.198;2023-02-19T14:21:45;101501.56;;;7.67;72.78
68712;BME280;55690;51.566;19.198;2023-02-19T14:25:57;101506.52;;;7.77;72.42
68712;BME280;55690;51.566;19.198;2023-02-19T14:29:59;101521.75;;;8.14;73.27
68712;BME280;55690;51.566;19.198;2023-02-19T14:34:14;101512.17;;;7.53;71.97
68712;BME280;55690;51.566;19.198;2023-02-19T14:42:31;101519.70;;;7.47;72.79
68712;BME280;55690;51.566;19.198;2023-02-19T14:50:52;101523.87;;;6.97;70.32
68712;BME280;55690;51.566;19.198;2023-02-19T14:55:00;101524.34;;;7.26;71.40
68712;BME280;55690;51.566;19.198;2023-02-19T14:59:14;101536.45;;;7.36;71.45
68712;BME280;55690;51.566;19.198;2023-02-19T15:07:29;101530.15;;;7.54;72.09
68712;BME280;55690;51.566;19.198;2023-02-19T15:11:32;101532.77;;;7.37;72.06
68712;BME280;55690;51.566;19.198;2023-02-19T15:15:41;101532.34;;;7.46;72.25
68712;BME280;55690;51.566;19.198;2023-02-19T15:19:43;101533.72;;;7.55;71.98
68712;BME280;55690;51.566;19.198;2023-02-19T15:23:44;101553.98;;;7.27;72.95
68712;BME280;55690;51.566;19.198;2023-02-19T15:27:46;101560.23;;;7.47;72.77
68712;BME280;55690;51.566;19.198;2023-02-19T15:31:50;101577.55;;;7.24;72.76
68712;BME280;55690;51.566;19.198;2023-02-19T15:36:03;101583.34;;;7.35;71.41
68712;BME280;55690;51.566;19.198;2023-02-19T15:40:03;101592.89;;;7.23;71.59
68712;BME280;55690;51.566;19.198;2023-02-19T15:48:26;101611.81;;;7.03;71.92
68712;BME280;55690;51.566;19.198;2023-02-19T15:56:45;101614.71;;;7.19;71.35
68712;BME280;55690;51.566;19.198;2023-02-19T16:00:54;101619.45;;;6.93;72.03
68712;BME280;55690;51.566;19.198;2023-02-19T16:04:57;101633.49;;;7.01;72.19
68712;BME280;55690;51.566;19.198;2023-02-19T16:09:04;101633.41;;;7.23;71.92
68712;BME280;55690;51.566;19.198;2023-02-19T16:13:06;101643.48;;;7.20;72.52
68712;BME280;55690;51.566;19.198;2023-02-19T16:17:17;101652.52;;;7.19;72.05
68712;BME280;55690;51.566;19.198;2023-02-19T16:21:25;101664.27;;;6.97;72.58
68712;BME280;55690;51.566;19.198;2023-02-19T16:25:36;101665.76;;;6.64;72.85
68712;BME280;55690;51.566;19.198;2023-02-19T16:29:38;101680.45;;;6.57;72.98
68712;BME280;55690;51.566;19.198;2023-02-19T16:33:47;101683.58;;;6.68;73.29
68712;BME280;55690;51.566;19.198;2023-02-19T16:37:58;101682.75;;;6.46;73.30
68712;BME280;55690;51.566;19.198;2023-02-19T16:42:09;101672.28;;;6.38;73.92
68712;BME280;55690;51.566;19.198;2023-02-19T16:46:12;101701.85;;;6.61;73.50
68712;BME280;55690;51.566;19.198;2023-02-19T16:50:17;101700.89;;;6.42;73.77
68712;BME280;55690;51.566;19.198;2023-02-19T16:54:20;101712.43;;;6.46;73.96
68712;BME280;55690;51.566;19.198;2023-02-19T16:58:21;101719.71;;;6.44;74.26
68712;BME280;55690;51.566;19.198;2023-02-19T17:02:23;101721.45;;;6.23;74.76
68712;BME280;55690;51.566;19.198;2023-02-19T17:06:25;101722.88;;;6.53;74.20
68712;BME280;55690;51.566;19.198;2023-02-19T17:10:27;101732.80;;;6.53;74.63
68712;BME280;55690;51.566;19.198;2023-02-19T17:14:28;101733.89;;;6.49;74.28
68712;BME280;55690;51.566;19.198;2023-02-19T17:18:30;101742.23;;;6.43;75.03
68712;BME280;55690;51.566;19.198;2023-02-19T17:22:31;101753.75;;;6.24;74.85
68712;BME280;55690;51.566;19.198;2023-02-19T17:26:33;101755.27;;;6.31;75.24
68712;BME280;55690;51.566;19.198;2023-02-19T17:30:35;101764.90;;;6.15;75.85
68712;BME280;55690;51.566;19.198;2023-02-19T17:34:36;101768.66;;;6.11;75.73
68712;BME280;55690;51.566;19.198;2023-02-19T17:38:38;101770.30;;;6.15;75.33
68712;BME280;55690;51.566;19.198;2023-02-19T17:42:39;101784.25;;;6.26;75.36
68712;BME280;55690;51.566;19.198;2023-02-19T17:46:41;101797.09;;;6.20;75.93
68712;BME280;55690;51.566;19.198;2023-02-19T17:51:25;101811.29;;;5.77;75.67
68712;BME280;55690;51.566;19.198;2023-02-19T17:55:30;101827.75;;;6.17;75.06
68712;BME280;55690;51.566;19.198;2023-02-19T17:59:36;101825.76;;;6.22;74.84
68712;BME280;55690;51.566;19.198;2023-02-19T18:03:43;101830.45;;;6.17;75.93
68712;BME280;55690;51.566;19.198;2023-02-19T18:07:49;101840.84;;;6.05;75.19
68712;BME280;55690;51.566;19.198;2023-02-19T18:11:55;101832.46;;;5.87;75.94
68712;BME280;55690;51.566;19.198;2023-02-19T18:16:01;101841.36;;;5.91;75.11
68712;BME280;55690;51.566;19.198;2023-02-19T18:20:12;101835.84;;;5.94;74.94
68712;BME280;55690;51.566;19.198;2023-02-19T18:24:13;101814.34;;;5.92;75.03
68712;BME280;55690;51.566;19.198;2023-02-19T18:28:20;101831.51;;;5.90;75.08
68712;BME280;55690;51.566;19.198;2023-02-19T18:32:26;101838.38;;;5.98;74.34
68712;BME280;55690;51.566;19.198;2023-02-19T18:36:32;101848.05;;;6.04;74.23
68712;BME280;55690;51.566;19.198;2023-02-19T18:40:38;101859.18;;;5.95;73.79
68712;BME280;55690;51.566;19.198;2023-02-19T18:44:48;101868.16;;;5.69;74.19
68712;BME280;55690;51.566;19.198;2023-02-19T18:48:51;101864.74;;;5.64;74.17
68712;BME280;55690;51.566;19.198;2023-02-19T18:52:57;101873.39;;;5.49;74.31
68712;BME280;55690;51.566;19.198;2023-02-19T18:57:03;101875.09;;;5.51;74.30
68712;BME280;55690;51.566;19.198;2023-02-19T19:01:11;101878.41;;;5.59;74.19
68712;BME280;55690;51.566;19.198;2023-02-19T19:05:17;101881.27;;;5.55;74.35
68712;BME280;55690;51.566;19.198;2023-02-19T19:09:22;101884.58;;;5.37;74.34
68712;BME280;55690;51.566;19.198;2023-02-19T19:13:28;101892.97;;;5.54;73.90
68712;BME280;55690;51.566;19.198;2023-02-19T19:17:34;101910.49;;;5.14;73.70
68712;BME280;55690;51.566;19.198;2023-02-19T19:21:40;101903.84;;;5.24;74.07
68712;BME280;55690;51.566;19.198;2023-02-19T19:25:46;101920.38;;;5.40;73.65
68712;BME280;55690;51.566;19.198;2023-02-19T19:29:52;101923.80;;;5.19;73.91
68712;BME280;55690;51.566;19.198;2023-02-19T19:33:59;101910.25;;;4.94;74.49
68712;BME280;55690;51.566;19.198;2023-02-19T19:38:05;101924.73;;;5.18;74.10
68712;BME280;55690;51.566;19.198;2023-02-19T19:42:11;101922.14;;;5.15;74.23
68712;BME280;55690;51.566;19.198;2023-02-19T19:46:17;101920.05;;;5.23;73.50
68712;BME280;55690;51.566;19.198;2023-02-19T19:50:23;101926.36;;;5.22;73.86
68712;BME280;55690;51.566;19.198;2023-02-19T19:54:29;101936.54;;;5.14;73.61
68712;BME280;55690;51.566;19.198;2023-02-19T19:58:36;101934.05;;;4.78;74.13
68712;BME280;55690;51.566;19.198;2023-02-19T20:02:43;101952.14;;;5.03;74.11
68712;BME280;55690;51.566;19.198;2023-02-19T20:06:49;101945.00;;;5.01;73.32
68712;BME280;55690;51.566;19.198;2023-02-19T20:10:54;101953.59;;;4.85;74.54
68712;BME280;55690;51.566;19.198;2023-02-19T20:15:01;101959.21;;;4.77;74.50
68712;BME280;55690;51.566;19.198;2023-02-19T20:19:07;101965.05;;;4.91;74.13
68712;BME280;55690;51.566;19.198;2023-02-19T20:23:13;101968.67;;;4.90;74.16
68712;BME280;55690;51.566;19.198;2023-02-19T20:27:20;101969.41;;;4.95;73.98
68712;BME280;55690;51.566;19.198;2023-02-19T20:31:25;101976.19;;;4.79;75.11
68712;BME280;55690;51.566;19.198;2023-02-19T20:35:31;101989.90;;;4.72;74.79
68712;BME280;55690;51.566;19.198;2023-02-19T20:39:38;101990.78;;;4.72;74.38
68712;BME280;55690;51.566;19.198;2023-02-19T20:43:44;101991.14;;;4.60;74.95
68712;BME280;55690;51.566;19.198;2023-02-19T20:47:50;101992.33;;;4.50;75.17
68712;BME280;55690;51.566;19.198;2023-02-19T20:52:03;101995.89;;;4.50;75.24
68712;BME280;55690;51.566;19.198;2023-02-19T20:56:05;101992.81;;;4.64;74.99
68712;BME280;55690;51.566;19.198;2023-02-19T21:00:09;101996.52;;;4.60;75.29
68712;BME280;55690;51.566;19.198;2023-02-19T21:04:15;101999.52;;;4.49;75.31
68712;BME280;55690;51.566;19.198;2023-02-19T21:08:21;102002.70;;;4.63;74.81
68712;BME280;55690;51.566;19.198;2023-02-19T21:12:27;102014.64;;;4.53;74.96
68712;BME280;55690;51.566;19.198;2023-02-19T21:16:33;102026.41;;;4.49;75.12
68712;BME280;55690;51.566;19.198;2023-02-19T21:20:39;102024.73;;;4.45;75.08
68712;BME280;55690;51.566;19.198;2023-02-19T21:24:49;102024.02;;;4.39;74.87
68712;BME280;55690;51.566;19.198;2023-02-19T21:28:53;102024.59;;;4.19;75.22
68712;BME280;55690;51.566;19.198;2023-02-19T21:32:58;102032.76;;;4.47;75.44
68712;BME280;55690;51.566;19.198;2023-02-19T21:37:04;102037.07;;;4.21;76.03
68712;BME280;55690;51.566;19.198;2023-02-19T21:41:10;102036.78;;;4.32;76.10
68712;BME280;55690;51.566;19.198;2023-02-19T21:45:16;102045.88;;;4.26;76.04
68712;BME280;55690;51.566;19.198;2023-02-19T21:49:23;102042.20;;;4.30;76.23
68712;BME280;55690;51.566;19.198;2023-02-19T21:53:29;102040.47;;;4.28;76.53
68712;BME280;55690;51.566;19.198;2023-02-19T21:57:35;102050.15;;;4.33;76.85
68712;BME280;55690;51.566;19.198;2023-02-19T22:01:42;102054.98;;;4.53;76.93
68712;BME280;55690;51.566;19.198;2023-02-19T22:05:47;102057.21;;;4.38;76.61
68712;BME280;55690;51.566;19.198;2023-02-19T22:09:54;102061.74;;;4.35;76.11
68712;BME280;55690;51.566;19.198;2023-02-19T22:14:00;102063.27;;;4.46;76.45
68712;BME280;55690;51.566;19.198;2023-02-19T22:18:06;102058.09;;;4.38;77.41
68712;BME280;55690;51.566;19.198;2023-02-19T22:22:12;102053.84;;;4.31;77.24
68712;BME280;55690;51.566;19.198;2023-02-19T22:26:24;102066.03;;;4.10;77.59
68712;BME280;55690;51.566;19.198;2023-02-19T22:30:26;102061.89;;;3.97;78.15
68712;BME280;55690;51.566;19.198;2023-02-19T22:34:31;102067.99;;;4.04;78.37
68712;BME280;55690;51.566;19.198;2023-02-19T22:38:37;102075.02;;;4.09;78.39
68712;BME280;55690;51.566;19.198;2023-02-19T22:42:43;102069.83;;;4.01;78.51
68712;BME280;55690;51.566;19.198;2023-02-19T22:46:52;102085.77;;;4.09;78.15
68712;BME280;55690;51.566;19.198;2023-02-19T22:50:56;102079.35;;;4.15;77.99
68712;BME280;55690;51.566;19.198;2023-02-19T22:55:02;102086.27;;;4.25;77.92
68712;BME280;55690;51.566;19.198;2023-02-19T22:59:08;102082.62;;;3.92;78.59
68712;BME280;55690;51.566;19.198;2023-02-19T23:03:14;102088.73;;;3.98;78.66